createdAt,value
2016-12-11T00:00:33.740Z,1010.29
2016-12-11T00:01:44.460Z,1010.25
2016-12-11T00:02:55.205Z,1010.23
2016-12-11T00:04:05.951Z,1010.17
2016-12-11T00:05:16.714Z,1010.18
2016-12-11T00:06:27.465Z,1010.13
2016-12-11T00:07:38.203Z,1010.12
2016-12-11T00:08:48.948Z,1010.07
2016-12-11T00:09:59.652Z,1010.04
2016-12-11T00:11:10.410Z,1010.01
2016-12-11T00:12:21.128Z,1009.96
2016-12-11T00:13:31.868Z,1009.94
2016-12-11T00:14:42.612Z,1009.9
2016-12-11T00:15:53.635Z,1009.82
2016-12-11T00:17:04.374Z,1009.81
2016-12-11T00:18:15.100Z,1009.8
2016-12-11T00:19:25.820Z,1009.77
2016-12-11T00:20:36.566Z,1009.76
2016-12-11T00:21:47.320Z,1009.76
2016-12-11T00:22:58.055Z,1009.74
2016-12-11T00:24:08.786Z,1009.77
2016-12-11T00:25:19.530Z,1009.77
2016-12-11T00:26:30.273Z,1009.78
2016-12-11T00:27:41.023Z,1009.77
2016-12-11T00:28:51.794Z,1009.74
2016-12-11T00:30:02.556Z,1009.73
2016-12-11T00:31:13.310Z,1009.72
2016-12-11T00:32:24.052Z,1009.67
2016-12-11T00:33:34.794Z,1009.68
2016-12-11T00:34:45.524Z,1009.63
2016-12-11T00:35:56.565Z,1009.59
2016-12-11T00:37:07.316Z,1009.53
2016-12-11T00:38:18.064Z,1009.5
2016-12-11T00:39:28.811Z,1009.51
2016-12-11T00:40:39.579Z,1009.46
2016-12-11T00:41:50.321Z,1009.54
2016-12-11T00:43:01.059Z,1009.46
2016-12-11T00:44:11.788Z,1009.44
2016-12-11T00:45:22.550Z,1009.42
2016-12-11T00:46:33.279Z,1009.44
2016-12-11T00:47:44.029Z,1009.4
2016-12-11T00:48:54.754Z,1009.34
2016-12-11T00:50:05.497Z,1009.34
2016-12-11T00:51:16.518Z,1009.33
2016-12-11T00:52:27.262Z,1009.32
2016-12-11T00:53:38.011Z,1009.28
2016-12-11T00:54:48.753Z,1009.27
2016-12-11T00:55:59.473Z,1009.19
2016-12-11T00:57:10.219Z,1009.22
2016-12-11T00:58:20.940Z,1009.2
2016-12-11T00:59:31.685Z,1009.16
2016-12-11T01:00:42.738Z,1009.12
2016-12-11T01:01:53.483Z,1009.11
2016-12-11T01:03:04.226Z,1009.07
2016-12-11T01:04:14.992Z,1009.08
2016-12-11T01:05:25.716Z,1009.03
2016-12-11T01:06:36.466Z,1009.02
2016-12-11T01:07:47.183Z,1009.01
2016-12-11T01:08:57.896Z,1009.03
2016-12-11T01:10:08.630Z,1008.99
2016-12-11T01:11:19.372Z,1009.05
2016-12-11T01:12:30.143Z,1008.98
2016-12-11T01:13:40.870Z,1008.98
2016-12-11T01:14:51.639Z,1008.98
2016-12-11T01:16:02.406Z,1008.94
2016-12-11T01:17:13.129Z,1008.91
2016-12-11T01:18:23.870Z,1008.91
2016-12-11T01:19:34.625Z,1008.88
2016-12-11T01:20:45.387Z,1008.87
2016-12-11T01:21:56.423Z,1008.85
2016-12-11T01:23:07.150Z,1008.85
2016-12-11T01:24:17.901Z,1008.79
2016-12-11T01:25:28.647Z,1008.81
2016-12-11T01:26:39.372Z,1008.79
2016-12-11T01:27:50.111Z,1008.73
2016-12-11T01:29:01.435Z,1008.67
2016-12-11T01:30:12.199Z,1008.7
2016-12-11T01:31:22.948Z,1008.69
2016-12-11T01:32:33.677Z,1008.63
2016-12-11T01:33:44.715Z,1008.67
2016-12-11T01:34:55.446Z,1008.62
2016-12-11T01:36:06.195Z,1008.61
2016-12-11T01:37:16.946Z,1008.59
2016-12-11T01:38:27.708Z,1008.59
2016-12-11T01:39:38.455Z,1008.59
2016-12-11T01:40:49.179Z,1008.57
2016-12-11T01:41:59.946Z,1008.58
2016-12-11T01:43:10.647Z,1008.51
2016-12-11T01:44:21.388Z,1008.47
2016-12-11T01:45:32.139Z,1008.47
2016-12-11T01:46:42.880Z,1008.46
2016-12-11T01:47:53.624Z,1008.38
2016-12-11T01:49:04.349Z,1008.4
2016-12-11T01:50:15.119Z,1008.34
2016-12-11T01:51:25.840Z,1008.29
2016-12-11T01:52:36.604Z,1008.27
2016-12-11T01:53:47.332Z,1008.23
2016-12-11T01:54:58.078Z,1008.16
2016-12-11T01:56:08.854Z,1008.12
2016-12-11T01:57:19.872Z,1008.1
2016-12-11T01:58:30.596Z,1008.03
2016-12-11T01:59:41.345Z,1007.97
2016-12-11T02:00:52.058Z,1007.91
2016-12-11T02:02:02.809Z,1007.9
2016-12-11T02:03:13.551Z,1007.84
2016-12-11T02:04:24.289Z,1007.8
2016-12-11T02:05:35.047Z,1007.83
2016-12-11T02:06:45.789Z,1007.78
2016-12-11T02:07:56.532Z,1007.8
2016-12-11T02:09:07.260Z,1007.79
2016-12-11T02:10:18.005Z,1007.77
2016-12-11T02:11:28.702Z,1007.72
2016-12-11T02:12:39.422Z,1007.67
2016-12-11T02:13:50.190Z,1007.7
2016-12-11T02:15:00.915Z,1007.64
2016-12-11T02:16:11.633Z,1007.58
2016-12-11T02:17:22.382Z,1007.6
2016-12-11T02:18:33.125Z,1007.57
2016-12-11T02:19:43.871Z,1007.55
2016-12-11T02:20:54.615Z,1007.55
2016-12-11T02:22:05.617Z,1007.52
2016-12-11T02:23:16.362Z,1007.53
2016-12-11T02:24:27.106Z,1007.53
2016-12-11T02:25:37.855Z,1007.53
2016-12-11T02:26:48.572Z,1007.49
2016-12-11T02:27:59.299Z,1007.46
2016-12-11T02:29:10.031Z,1007.46
2016-12-11T02:30:20.781Z,1007.45
2016-12-11T02:31:31.510Z,1007.45
2016-12-11T02:32:42.560Z,1007.4
2016-12-11T02:33:53.303Z,1007.44
2016-12-11T02:35:04.336Z,1007.36
2016-12-11T02:36:15.065Z,1007.33
2016-12-11T02:37:25.814Z,1007.25
2016-12-11T02:38:36.557Z,1007.2
2016-12-11T02:39:47.257Z,1007.18
2016-12-11T02:40:58.004Z,1007.14
2016-12-11T02:42:08.725Z,1007.11
2016-12-11T02:43:19.458Z,1007.1
2016-12-11T02:44:30.187Z,1007.04
2016-12-11T02:45:40.933Z,1007.04
2016-12-11T02:46:51.654Z,1007
2016-12-11T02:48:02.401Z,1006.96
2016-12-11T02:49:13.153Z,1006.95
2016-12-11T02:50:23.891Z,1006.93
2016-12-11T02:51:34.645Z,1006.91
2016-12-11T02:52:45.388Z,1006.88
2016-12-11T02:53:56.130Z,1006.87
2016-12-11T02:55:06.851Z,1006.88
2016-12-11T02:56:17.596Z,1006.82
2016-12-11T02:57:28.322Z,1006.84
2016-12-11T02:58:39.065Z,1006.82
2016-12-11T02:59:49.785Z,1006.75
2016-12-11T03:01:00.559Z,1006.69
2016-12-11T03:02:11.318Z,1006.62
2016-12-11T03:03:22.086Z,1006.56
2016-12-11T03:04:32.847Z,1006.52
2016-12-11T03:05:43.613Z,1006.47
2016-12-11T03:06:54.359Z,1006.4
2016-12-11T03:08:05.109Z,1006.38
2016-12-11T03:09:15.827Z,1006.38
2016-12-11T03:10:26.552Z,1006.35
2016-12-11T03:11:37.298Z,1006.31
2016-12-11T03:12:48.043Z,1006.3
2016-12-11T03:13:58.789Z,1006.23
2016-12-11T03:15:09.506Z,1006.17
2016-12-11T03:16:20.231Z,1006.13
2016-12-11T03:17:30.975Z,1006.07
2016-12-11T03:18:41.694Z,1006
2016-12-11T03:19:52.441Z,1006.02
2016-12-11T03:21:03.170Z,1006.02
2016-12-11T03:22:13.911Z,1005.95
2016-12-11T03:23:24.653Z,1005.94
2016-12-11T03:24:35.392Z,1005.87
2016-12-11T03:25:46.437Z,1005.8
2016-12-11T03:26:57.167Z,1005.77
2016-12-11T03:28:07.887Z,1005.74
2016-12-11T03:29:18.613Z,1005.66
2016-12-11T03:30:29.329Z,1005.64
2016-12-11T03:31:40.075Z,1005.54
2016-12-11T03:32:50.800Z,1005.54
2016-12-11T03:34:01.592Z,1005.45
2016-12-11T03:35:12.313Z,1005.47
2016-12-11T03:36:23.038Z,1005.45
2016-12-11T03:37:33.801Z,1005.42
2016-12-11T03:38:44.527Z,1005.39
2016-12-11T03:39:55.272Z,1005.36
2016-12-11T03:41:06.018Z,1005.36
2016-12-11T03:42:16.739Z,1005.3
2016-12-11T03:43:27.460Z,1005.26
2016-12-11T03:44:38.181Z,1005.22
2016-12-11T03:45:48.908Z,1005.28
2016-12-11T03:46:59.654Z,1005.28
2016-12-11T03:48:10.419Z,1005.21
2016-12-11T03:49:21.165Z,1005.19
2016-12-11T03:50:31.907Z,1005.18
2016-12-11T03:51:42.633Z,1005.17
2016-12-11T03:52:53.358Z,1005.18
2016-12-11T03:54:04.099Z,1005.21
2016-12-11T03:55:14.837Z,1005.23
2016-12-11T03:56:25.917Z,1005.19
2016-12-11T03:57:36.712Z,1005.09
2016-12-11T03:58:47.437Z,1005.09
2016-12-11T03:59:58.171Z,1005.05
2016-12-11T04:01:08.874Z,1005
2016-12-11T04:02:19.951Z,1004.96
2016-12-11T04:03:30.697Z,1004.91
2016-12-11T04:04:41.459Z,1004.87
2016-12-11T04:05:52.214Z,1004.84
2016-12-11T04:07:02.964Z,1004.83
2016-12-11T04:08:13.675Z,1004.77
2016-12-11T04:09:24.404Z,1004.77
2016-12-11T04:10:35.142Z,1004.77
2016-12-11T04:11:45.894Z,1004.74
2016-12-11T04:12:56.909Z,1004.74
2016-12-11T04:14:07.634Z,1004.71
2016-12-11T04:15:18.651Z,1004.7
2016-12-11T04:16:29.397Z,1004.69
2016-12-11T04:17:40.115Z,1004.64
2016-12-11T04:18:50.870Z,1004.62
2016-12-11T04:20:01.630Z,1004.54
2016-12-11T04:21:12.386Z,1004.44
2016-12-11T04:22:23.127Z,1004.38
2016-12-11T04:23:33.902Z,1004.38
2016-12-11T04:24:44.949Z,1004.31
2016-12-11T04:25:55.696Z,1004.33
2016-12-11T04:27:06.440Z,1004.24
2016-12-11T04:28:17.207Z,1004.2
2016-12-11T04:29:27.976Z,1004.16
2016-12-11T04:30:38.704Z,1004.13
2016-12-11T04:31:49.424Z,1004.08
2016-12-11T04:33:00.166Z,1004.07
2016-12-11T04:34:10.892Z,1004.04
2016-12-11T04:35:21.600Z,1004.03
2016-12-11T04:36:32.354Z,1003.96
2016-12-11T04:37:43.077Z,1003.89
2016-12-11T04:38:53.826Z,1003.86
2016-12-11T04:40:04.551Z,1003.82
2016-12-11T04:41:15.263Z,1003.75
2016-12-11T04:42:25.987Z,1003.71
2016-12-11T04:43:36.730Z,1003.74
2016-12-11T04:44:47.478Z,1003.68
2016-12-11T04:45:58.203Z,1003.67
2016-12-11T04:47:08.947Z,1003.63
2016-12-11T04:48:19.693Z,1003.6
2016-12-11T04:49:30.438Z,1003.57
2016-12-11T04:50:41.177Z,1003.55
2016-12-11T04:51:51.907Z,1003.53
2016-12-11T04:53:02.644Z,1003.49
2016-12-11T04:54:13.412Z,1003.47
2016-12-11T04:55:24.120Z,1003.42
2016-12-11T04:56:34.837Z,1003.42
2016-12-11T04:57:45.582Z,1003.36
2016-12-11T04:58:56.330Z,1003.32
2016-12-11T05:00:07.074Z,1003.24
2016-12-11T05:01:17.820Z,1003.26
2016-12-11T05:02:28.572Z,1003.24
2016-12-11T05:03:39.313Z,1003.18
2016-12-11T05:04:50.059Z,1003.12
2016-12-11T05:06:00.809Z,1003.08
2016-12-11T05:07:11.579Z,1002.97
2016-12-11T05:08:22.619Z,1002.94
2016-12-11T05:09:33.376Z,1002.94
2016-12-11T05:10:44.131Z,1002.92
2016-12-11T05:11:54.859Z,1002.91
2016-12-11T05:13:05.598Z,1002.92
2016-12-11T05:14:16.312Z,1002.97
2016-12-11T05:15:27.082Z,1003.02
2016-12-11T05:16:37.823Z,1002.88
2016-12-11T05:17:48.569Z,1002.78
2016-12-11T05:18:59.303Z,1002.79
2016-12-11T05:20:10.053Z,1002.78
2016-12-11T05:21:20.752Z,1002.72
2016-12-11T05:22:31.477Z,1002.77
2016-12-11T05:23:42.520Z,1002.74
2016-12-11T05:24:53.240Z,1002.68
2016-12-11T05:26:03.986Z,1002.54
2016-12-11T05:27:14.720Z,1002.47
2016-12-11T05:28:25.729Z,1002.44
2016-12-11T05:29:36.474Z,1002.4
2016-12-11T05:30:47.196Z,1002.41
2016-12-11T05:31:57.946Z,1002.45
2016-12-11T05:33:09.016Z,1002.42
2016-12-11T05:34:20.076Z,1002.29
2016-12-11T05:35:30.805Z,1002.28
2016-12-11T05:36:41.553Z,1002.19
2016-12-11T05:37:52.300Z,1002.21
2016-12-11T05:39:03.023Z,1002.16
2016-12-11T05:40:14.065Z,1002.18
2016-12-11T05:41:24.808Z,1002.09
2016-12-11T05:42:35.554Z,1002.03
2016-12-11T05:43:46.258Z,1002.03
2016-12-11T05:44:57.294Z,1002.11
2016-12-11T05:46:08.046Z,1002.07
2016-12-11T05:47:18.792Z,1002.09
2016-12-11T05:48:29.839Z,1002.02
2016-12-11T05:49:40.608Z,1002.02
2016-12-11T05:50:51.384Z,1001.9
2016-12-11T05:52:02.121Z,1001.84
2016-12-11T05:53:12.871Z,1001.85
2016-12-11T05:54:23.614Z,1001.8
2016-12-11T05:55:34.342Z,1001.85
2016-12-11T05:56:45.059Z,1001.86
2016-12-11T05:57:55.798Z,1001.8
2016-12-11T05:59:06.593Z,1001.85
2016-12-11T06:00:17.310Z,1001.83
2016-12-11T06:01:28.031Z,1001.84
2016-12-11T06:02:38.788Z,1001.74
2016-12-11T06:03:49.535Z,1001.74
2016-12-11T06:05:00.271Z,1001.73
2016-12-11T06:06:10.997Z,1001.68
2016-12-11T06:07:21.718Z,1001.69
2016-12-11T06:08:32.461Z,1001.65
2016-12-11T06:09:43.215Z,1001.63
2016-12-11T06:10:53.977Z,1001.58
2016-12-11T06:12:04.744Z,1001.53
2016-12-11T06:13:15.756Z,1001.57
2016-12-11T06:14:26.494Z,1001.56
2016-12-11T06:15:37.215Z,1001.5
2016-12-11T06:16:47.940Z,1001.46
2016-12-11T06:17:58.682Z,1001.44
2016-12-11T06:19:09.429Z,1001.42
2016-12-11T06:20:20.174Z,1001.44
2016-12-11T06:21:30.917Z,1001.4
2016-12-11T06:22:41.666Z,1001.37
2016-12-11T06:23:52.417Z,1001.32
2016-12-11T06:25:03.134Z,1001.34
2016-12-11T06:26:13.860Z,1001.31
2016-12-11T06:27:24.605Z,1001.29
2016-12-11T06:28:35.343Z,1001.24
2016-12-11T06:29:46.067Z,1001.25
2016-12-11T06:30:56.818Z,1001.23
2016-12-11T06:32:07.860Z,1001.2
2016-12-11T06:33:18.560Z,1001.18
2016-12-11T06:34:29.308Z,1001.15
2016-12-11T06:35:40.047Z,1001.15
2016-12-11T06:36:50.768Z,1001.15
2016-12-11T06:38:01.520Z,1001.17
2016-12-11T06:39:12.257Z,1001.11
2016-12-11T06:40:23.006Z,1001.18
2016-12-11T06:41:33.744Z,1001.15
2016-12-11T06:42:44.477Z,1001.11
2016-12-11T06:43:55.223Z,1001.09
2016-12-11T06:45:05.940Z,1000.99
2016-12-11T06:46:16.690Z,1000.94
2016-12-11T06:47:27.441Z,1000.91
2016-12-11T06:48:38.179Z,1000.91
2016-12-11T06:49:49.228Z,1000.91
2016-12-11T06:50:59.970Z,1000.86
2016-12-11T06:52:10.716Z,1000.86
2016-12-11T06:53:21.466Z,1000.87
2016-12-11T06:54:32.208Z,1000.83
2016-12-11T06:55:42.936Z,1000.84
2016-12-11T06:56:53.681Z,1000.79
2016-12-11T06:58:04.401Z,1000.69
2016-12-11T06:59:15.163Z,1000.73
2016-12-11T07:00:25.898Z,1000.7
2016-12-11T07:01:36.638Z,1000.67
2016-12-11T07:02:47.380Z,1000.66
2016-12-11T07:03:58.101Z,1000.65
2016-12-11T07:05:08.854Z,1000.65
2016-12-11T07:06:19.593Z,1000.62
2016-12-11T07:07:30.306Z,1000.64
2016-12-11T07:08:41.034Z,1000.64
2016-12-11T07:09:51.756Z,1000.61
2016-12-11T07:11:02.507Z,1000.6
2016-12-11T07:12:13.245Z,1000.57
2016-12-11T07:13:23.994Z,1000.54
2016-12-11T07:14:34.744Z,1000.52
2016-12-11T07:15:45.490Z,1000.53
2016-12-11T07:16:56.236Z,1000.52
2016-12-11T07:18:07.003Z,1000.49
2016-12-11T07:19:17.724Z,1000.46
2016-12-11T07:20:28.445Z,1000.5
2016-12-11T07:21:39.159Z,1000.49
2016-12-11T07:22:49.868Z,1000.39
2016-12-11T07:24:00.602Z,1000.36
2016-12-11T07:25:11.629Z,1000.48
2016-12-11T07:26:22.354Z,1000.4
2016-12-11T07:27:33.120Z,1000.45
2016-12-11T07:28:43.859Z,1000.4
2016-12-11T07:29:54.575Z,1000.37
2016-12-11T07:31:05.309Z,1000.4
2016-12-11T07:32:16.034Z,1000.33
2016-12-11T07:33:26.780Z,1000.33
2016-12-11T07:34:37.554Z,1000.2
2016-12-11T07:35:48.285Z,1000.22
2016-12-11T07:36:59.014Z,1000.23
2016-12-11T07:38:09.762Z,1000.19
2016-12-11T07:39:20.481Z,1000.16
2016-12-11T07:40:31.205Z,1000.11
2016-12-11T07:41:41.952Z,1000.18
2016-12-11T07:42:52.694Z,1000.22
2016-12-11T07:44:03.440Z,1000.2
2016-12-11T07:45:14.465Z,1000.24
2016-12-11T07:46:25.203Z,1000.24
2016-12-11T07:47:36.294Z,1000.21
2016-12-11T07:48:47.042Z,1000.09
2016-12-11T07:49:57.744Z,1000.14
2016-12-11T07:51:08.470Z,1000.09
2016-12-11T07:52:19.192Z,1000.15
2016-12-11T07:53:29.933Z,1000.15
2016-12-11T07:54:40.653Z,1000.12
2016-12-11T07:55:51.400Z,1000.09
2016-12-11T07:57:02.171Z,1000.16
2016-12-11T07:58:13.197Z,1000.19
2016-12-11T07:59:23.941Z,1000.09
2016-12-11T08:00:34.684Z,1000.06
2016-12-11T08:01:45.431Z,1000.12
2016-12-11T08:02:56.176Z,1000.06
2016-12-11T08:04:06.899Z,1000.09
2016-12-11T08:05:17.644Z,1000.12
2016-12-11T08:06:28.435Z,1000.05
2016-12-11T08:07:39.184Z,1000.02
2016-12-11T08:08:49.985Z,1000.03
2016-12-11T08:10:00.702Z,1000.02
2016-12-11T08:11:11.753Z,1000.06
2016-12-11T08:12:22.490Z,1000.07
2016-12-11T08:13:33.221Z,1000.16
2016-12-11T08:14:43.966Z,1000.17
2016-12-11T08:15:54.712Z,1000.12
2016-12-11T08:17:05.452Z,1000.05
2016-12-11T08:18:16.200Z,1000.1
2016-12-11T08:19:26.930Z,1000.1
2016-12-11T08:20:37.668Z,1000.16
2016-12-11T08:21:48.392Z,1000.13
2016-12-11T08:22:59.132Z,1000.2
2016-12-11T08:24:09.881Z,1000.19
2016-12-11T08:25:20.630Z,1000.19
2016-12-11T08:26:31.394Z,1000.09
2016-12-11T08:27:42.162Z,1000.13
2016-12-11T08:28:52.912Z,1000.1
2016-12-11T08:30:03.658Z,1000.09
2016-12-11T08:31:14.389Z,1000.05
2016-12-11T08:32:25.126Z,1000.01
2016-12-11T08:33:35.876Z,1000.12
2016-12-11T08:34:46.914Z,1000.07
2016-12-11T08:35:57.663Z,1000.06
2016-12-11T08:37:08.413Z,1000.08
2016-12-11T08:38:19.456Z,1000.11
2016-12-11T08:39:30.193Z,1000.14
2016-12-11T08:40:40.939Z,1000.08
2016-12-11T08:41:51.667Z,1000.14
2016-12-11T08:43:02.394Z,1000.19
2016-12-11T08:44:13.185Z,1000.14
2016-12-11T08:45:23.953Z,1000.1
2016-12-11T08:46:34.705Z,1000.09
2016-12-11T08:47:45.448Z,1000.05
2016-12-11T08:48:56.500Z,1000.07
2016-12-11T08:50:07.239Z,1000.12
2016-12-11T08:51:17.960Z,1000
2016-12-11T08:52:28.686Z,1000.07
2016-12-11T08:53:39.403Z,1000.09
2016-12-11T08:54:50.131Z,1000.03
2016-12-11T08:56:00.894Z,1000.09
2016-12-11T08:57:11.621Z,1000.09
2016-12-11T08:58:22.354Z,1000.08
2016-12-11T08:59:33.085Z,1000.04
2016-12-11T09:00:43.808Z,999.99
2016-12-11T09:01:54.526Z,1000.05
2016-12-11T09:03:05.262Z,1000.1
2016-12-11T09:04:15.992Z,1000.06
2016-12-11T09:05:26.768Z,1000.07
2016-12-11T09:06:37.525Z,1000.1
2016-12-11T09:07:48.229Z,1000.14
2016-12-11T09:08:58.950Z,1000.13
2016-12-11T09:10:09.672Z,1000.11
2016-12-11T09:11:20.423Z,1000.15
2016-12-11T09:12:31.168Z,1000.2
2016-12-11T09:13:41.912Z,1000.2
2016-12-11T09:14:52.636Z,1000.23
2016-12-11T09:16:03.379Z,1000.2
2016-12-11T09:17:14.123Z,1000.21
2016-12-11T09:18:24.819Z,1000.2
2016-12-11T09:19:35.570Z,1000.29
2016-12-11T09:20:46.285Z,1000.19
2016-12-11T09:21:57.024Z,1000.27
2016-12-11T09:23:07.774Z,1000.31
2016-12-11T09:24:18.498Z,1000.31
2016-12-11T09:25:29.220Z,1000.3
2016-12-11T09:26:39.938Z,1000.3
2016-12-11T09:27:50.658Z,1000.4
2016-12-11T09:29:01.383Z,1000.45
2016-12-11T09:30:12.159Z,1000.49
2016-12-11T09:31:22.900Z,1000.55
2016-12-11T09:32:33.618Z,1000.21
2016-12-11T09:33:44.368Z,1000.59
2016-12-11T09:34:55.088Z,1000.62
2016-12-11T09:36:05.859Z,1000.67
2016-12-11T09:37:16.580Z,1000.67
2016-12-11T09:38:27.302Z,1000.68
2016-12-11T09:39:38.029Z,1000.73
2016-12-11T09:40:48.777Z,1000.72
2016-12-11T09:41:59.508Z,1000.81
2016-12-11T09:43:10.240Z,1000.95
2016-12-11T09:44:20.987Z,1001.07
2016-12-11T09:45:31.732Z,1001.17
2016-12-11T09:46:42.480Z,1001.25
2016-12-11T09:47:53.225Z,1001.18
2016-12-11T09:49:03.946Z,1001.37
2016-12-11T09:50:14.745Z,1001.43
2016-12-11T09:51:25.474Z,1001.51
2016-12-11T09:52:36.209Z,1001.49
2016-12-11T09:53:46.954Z,1001.68
2016-12-11T09:54:57.696Z,1001.62
2016-12-11T09:56:08.416Z,1001.76
2016-12-11T09:57:19.163Z,1001.7
2016-12-11T09:58:29.914Z,1001.71
2016-12-11T09:59:40.655Z,1001.61
2016-12-11T10:00:51.403Z,1001.85
2016-12-11T10:02:02.122Z,1001.88
2016-12-11T10:03:13.171Z,1001.95
2016-12-11T10:04:23.917Z,1002.03
2016-12-11T10:05:34.644Z,1002.4
2016-12-11T10:06:45.377Z,1002.39
2016-12-11T10:07:56.106Z,1002.35
2016-12-11T10:09:07.170Z,1002.75
2016-12-11T10:10:17.923Z,1002.5
2016-12-11T10:11:28.668Z,1002.81
2016-12-11T10:12:39.409Z,1002.66
2016-12-11T10:13:50.131Z,1002.62
2016-12-11T10:15:00.881Z,1002.9
2016-12-11T10:16:11.629Z,1002.93
2016-12-11T10:17:22.370Z,1003.08
2016-12-11T10:18:33.111Z,1003.04
2016-12-11T10:19:43.883Z,1002.96
2016-12-11T10:20:54.606Z,1003.08
2016-12-11T10:22:05.358Z,1003.22
2016-12-11T10:23:16.102Z,1003.31
2016-12-11T10:24:26.848Z,1003.3
2016-12-11T10:25:37.576Z,1003.32
2016-12-11T10:26:48.315Z,1003.41
2016-12-11T10:27:59.057Z,1003.44
2016-12-11T10:29:09.778Z,1003.46
2016-12-11T10:30:20.481Z,1003.53
2016-12-11T10:31:31.220Z,1003.61
2016-12-11T10:32:41.943Z,1003.64
2016-12-11T10:33:52.663Z,1003.73
2016-12-11T10:35:03.412Z,1003.73
2016-12-11T10:36:14.197Z,1003.81
2016-12-11T10:37:24.932Z,1003.89
2016-12-11T10:38:35.664Z,1003.94
2016-12-11T10:39:46.424Z,1003.97
2016-12-11T10:40:57.163Z,1004.01
2016-12-11T10:42:07.888Z,1004.06
2016-12-11T10:43:18.663Z,1004.08
2016-12-11T10:44:29.401Z,1004.29
2016-12-11T10:45:40.144Z,1004.32
2016-12-11T10:46:50.870Z,1004.32
2016-12-11T10:48:01.587Z,1004.15
2016-12-11T10:49:12.337Z,1004.38
2016-12-11T10:50:23.081Z,1004.31
2016-12-11T10:51:33.803Z,1004.37
2016-12-11T10:52:44.851Z,1004.4
2016-12-11T10:53:55.599Z,1004.35
2016-12-11T10:55:06.345Z,1004.49
2016-12-11T10:56:17.068Z,1004.44
2016-12-11T10:57:27.812Z,1004.52
2016-12-11T10:58:38.554Z,1004.51
2016-12-11T10:59:49.576Z,1004.48
2016-12-11T11:01:00.326Z,1004.58
2016-12-11T11:02:11.089Z,1004.68
2016-12-11T11:03:21.842Z,1004.71
2016-12-11T11:04:32.603Z,1004.66
2016-12-11T11:05:43.330Z,1004.78
2016-12-11T11:06:54.076Z,1004.67
2016-12-11T11:08:04.823Z,1004.79
2016-12-11T11:09:15.574Z,1004.77
2016-12-11T11:10:26.321Z,1004.79
2016-12-11T11:11:37.386Z,1004.81
2016-12-11T11:12:48.128Z,1004.86
2016-12-11T11:13:58.828Z,1004.89
2016-12-11T11:15:09.549Z,1004.87
2016-12-11T11:16:20.570Z,1004.91
2016-12-11T11:17:31.320Z,1004.93
2016-12-11T11:18:42.071Z,1004.86
2016-12-11T11:19:52.808Z,1005.09
2016-12-11T11:21:03.558Z,1005.01
2016-12-11T11:22:14.279Z,1005.11
2016-12-11T11:23:24.996Z,1005.21
2016-12-11T11:24:36.042Z,1005.21
2016-12-11T11:25:47.088Z,1005.33
2016-12-11T11:26:57.802Z,1005.33
2016-12-11T11:28:08.861Z,1005.21
2016-12-11T11:29:19.602Z,1005.19
2016-12-11T11:30:30.323Z,1005.36
2016-12-11T11:31:41.061Z,1005.4
2016-12-11T11:32:51.790Z,1005.32
2016-12-11T11:34:02.511Z,1005.41
2016-12-11T11:35:13.212Z,1005.48
2016-12-11T11:36:23.932Z,1005.42
2016-12-11T11:37:34.678Z,1005.42
2016-12-11T11:38:45.425Z,1005.48
2016-12-11T11:39:56.171Z,1005.35
2016-12-11T11:41:06.916Z,1005.49
2016-12-11T11:42:17.636Z,1005.41
2016-12-11T11:43:28.405Z,1005.44
2016-12-11T11:44:39.146Z,1005.44
2016-12-11T11:45:49.877Z,1005.44
2016-12-11T11:47:00.623Z,1005.39
2016-12-11T11:48:11.368Z,1005.53
2016-12-11T11:49:22.135Z,1005.54
2016-12-11T11:50:32.830Z,1005.5
2016-12-11T11:51:43.552Z,1005.56
2016-12-11T11:52:54.323Z,1005.66
2016-12-11T11:54:05.074Z,1005.64
2016-12-11T11:55:15.817Z,1005.67
2016-12-11T11:56:26.540Z,1005.67
2016-12-11T11:57:37.289Z,1005.79
2016-12-11T11:58:48.029Z,1005.68
2016-12-11T11:59:58.749Z,1005.68
2016-12-11T12:01:09.795Z,1005.76
2016-12-11T12:02:20.516Z,1005.71
2016-12-11T12:03:31.241Z,1005.75
2016-12-11T12:04:41.983Z,1005.75
2016-12-11T12:05:52.733Z,1005.74
2016-12-11T12:07:03.755Z,1005.71
2016-12-11T12:08:14.490Z,1005.68
2016-12-11T12:09:25.253Z,1005.78
2016-12-11T12:10:36.016Z,1005.77
2016-12-11T12:11:46.763Z,1005.75
2016-12-11T12:12:57.508Z,1005.72
2016-12-11T12:14:08.254Z,1005.75
2016-12-11T12:15:19.002Z,1005.84
2016-12-11T12:16:29.747Z,1005.8
2016-12-11T12:17:40.493Z,1005.81
2016-12-11T12:18:51.235Z,1005.9
2016-12-11T12:20:01.948Z,1005.94
2016-12-11T12:21:12.680Z,1005.93
2016-12-11T12:22:23.414Z,1005.77
2016-12-11T12:23:34.143Z,1005.9
2016-12-11T12:24:44.842Z,1005.9
2016-12-11T12:25:55.585Z,1006
2016-12-11T12:27:06.335Z,1005.93
2016-12-11T12:28:17.110Z,1006.02
2016-12-11T12:29:27.865Z,1005.99
2016-12-11T12:30:38.597Z,1006.02
2016-12-11T12:31:49.318Z,1006.04
2016-12-11T12:33:00.089Z,1005.99
2016-12-11T12:34:10.831Z,1006
2016-12-11T12:35:21.606Z,1006.06
2016-12-11T12:36:32.349Z,1006.03
2016-12-11T12:37:43.091Z,1006.05
2016-12-11T12:38:53.820Z,1006.11
2016-12-11T12:40:04.541Z,1006.09
2016-12-11T12:41:15.306Z,1006.14
2016-12-11T12:42:26.049Z,1006.05
2016-12-11T12:43:36.797Z,1006.05
2016-12-11T12:44:47.512Z,1006.07
2016-12-11T12:45:58.241Z,1006.05
2016-12-11T12:47:08.988Z,1006.05
2016-12-11T12:48:19.728Z,1006.04
2016-12-11T12:49:30.471Z,1006.05
2016-12-11T12:50:41.204Z,1006.03
2016-12-11T12:51:51.951Z,1006.07
2016-12-11T12:53:02.692Z,1006.07
2016-12-11T12:54:13.388Z,1006.06
2016-12-11T12:55:24.105Z,1006.04
2016-12-11T12:56:34.859Z,1005.99
2016-12-11T12:57:45.602Z,1006
2016-12-11T12:58:56.332Z,1006.01
2016-12-11T13:00:07.116Z,1006.04
2016-12-11T13:01:17.846Z,1006.06
2016-12-11T13:02:28.590Z,1006.06
2016-12-11T13:03:39.335Z,1006.03
2016-12-11T13:04:50.077Z,1006.13
2016-12-11T13:06:00.778Z,1006.12
2016-12-11T13:07:11.519Z,1006.08
2016-12-11T13:08:22.262Z,1006.07
2016-12-11T13:09:32.990Z,1006.04
2016-12-11T13:10:43.736Z,1006.09
2016-12-11T13:11:54.482Z,1006.09
2016-12-11T13:13:05.228Z,1006.1
2016-12-11T13:14:15.970Z,1006.14
2016-12-11T13:15:26.666Z,1006.13
2016-12-11T13:16:37.384Z,1006.17
2016-12-11T13:17:48.109Z,1006.18
2016-12-11T13:18:58.829Z,1006.19
2016-12-11T13:20:09.550Z,1006.16
2016-12-11T13:21:20.271Z,1006.15
2016-12-11T13:22:31.017Z,1006.1
2016-12-11T13:23:41.761Z,1006.22
2016-12-11T13:24:52.514Z,1006.17
2016-12-11T13:26:03.285Z,1006.18
2016-12-11T13:27:14.032Z,1006.12
2016-12-11T13:28:24.797Z,1006.14
2016-12-11T13:29:35.543Z,1005.96
2016-12-11T13:30:46.240Z,1006.08
2016-12-11T13:31:57.291Z,1006.06
2016-12-11T13:33:08.054Z,1006.09
2016-12-11T13:34:18.807Z,1006.11
2016-12-11T13:35:29.560Z,1006.1
2016-12-11T13:36:40.295Z,1006.14
2016-12-11T13:37:51.044Z,1006.14
2016-12-11T13:39:01.766Z,1006.14
2016-12-11T13:40:12.538Z,1006.2
2016-12-11T13:41:23.303Z,1006.06
2016-12-11T13:42:34.029Z,1006.12
2016-12-11T13:43:44.763Z,1006.16
2016-12-11T13:44:55.498Z,1006.13
2016-12-11T13:46:06.217Z,1006.08
2016-12-11T13:47:16.976Z,1006.14
2016-12-11T13:48:27.709Z,1006.11
2016-12-11T13:49:38.434Z,1006.2
2016-12-11T13:50:49.178Z,1006.15
2016-12-11T13:51:59.918Z,1006.22
2016-12-11T13:53:10.681Z,1006.22
2016-12-11T13:54:21.382Z,1006.22
2016-12-11T13:55:32.106Z,1006.25
2016-12-11T13:56:42.852Z,1006.23
2016-12-11T13:57:53.570Z,1006.25
2016-12-11T13:59:04.302Z,1006.21
2016-12-11T14:00:15.061Z,1006.28
2016-12-11T14:01:25.816Z,1006.21
2016-12-11T14:02:36.542Z,1006.19
2016-12-11T14:03:47.553Z,1006.25
2016-12-11T14:04:58.301Z,1006.31
2016-12-11T14:06:09.025Z,1006.29
2016-12-11T14:07:19.767Z,1006.33
2016-12-11T14:08:30.492Z,1006.28
2016-12-11T14:09:41.239Z,1006.34
2016-12-11T14:10:51.983Z,1006.38
2016-12-11T14:12:03.005Z,1006.31
2016-12-11T14:13:13.721Z,1006.32
2016-12-11T14:14:24.467Z,1006.36
2016-12-11T14:15:35.215Z,1006.4
2016-12-11T14:16:45.915Z,1006.39
2016-12-11T14:17:56.635Z,1006.41
2016-12-11T14:19:07.358Z,1006.44